Monday, December 17, 2018, 6:05 AM EST
Back to Local

KSBY, Salisbury-wicomico Cty Reg

Location: Salisbury, MD, United States Lat: 38.333
Local Time: 6:05 AM EST (11:05 GMT) Lon: -75.5
Time Zone: US/Eastern Elev: 52 ft

Show me the last for .
Show Decoded

2018-12-17 04:54 METAR KSBY 170954Z AUTO 30007KT 10SM OVC031 06/04 A2985 RMK AO2 SLP111 T00560039
                 =
2018-12-17 03:54 METAR KSBY 170854Z AUTO 29006KT 10SM OVC032 06/04 A2987 RMK AO2 SLP116 T00560039
                 50004 =
2018-12-17 02:54 METAR KSBY 170754Z AUTO 28008KT 10SM BKN031 05/04 A2987 RMK AO2 SLP117 T00500039
                 =
2018-12-17 02:29 METAR KSBY 170729Z AUTO 29005KT 10SM SCT016 BKN035 05/04 A2987 RMK AO2 T00500039
                 =
2018-12-17 01:54 METAR KSBY 170654Z AUTO 31008G16KT 10SM OVC017 06/04 A2987 RMK AO2 SLP115
                 T00560039 =
2018-12-17 01:06 METAR KSBY 170606Z AUTO 29008KT 10SM OVC016 06/04 A2986 RMK AO2 T00560044 =
2018-12-17 00:54 METAR KSBY 170554Z AUTO 30007KT 10SM OVC013 05/04 A2986 RMK AO2 SLP112 T00500044
                 10061 20050 56007 =
2018-12-16 23:54 METAR KSBY 170454Z AUTO 29005KT 10SM BKN011 OVC015 05/05 A2987 RMK AO2 CIG
                 008V012 SLP115 T00500050 401280050 =
2018-12-16 22:54 METAR KSBY 170354Z AUTO 31009KT 5SM BR OVC009 05/04 A2988 RMK AO2 CIG 006V011
                 SLP119 T00500044 =
2018-12-16 21:54 METAR KSBY 170254Z 32011G18KT 10SM OVC010 05/04 A2986 RMK AO2 SLP113 T00500044
                 53007 =
2018-12-16 20:54 METAR KSBY 170154Z 31010G17KT 10SM OVC011 06/04 A2985 RMK AO2 CIG 009V013 SLP108
                 T00560044 =
2018-12-16 20:49 METAR KSBY 170149Z 31010G17KT 10SM OVC011 06/04 A2984 RMK AO2 CIG 007V013 =
2018-12-16 20:29 METAR KSBY 170129Z 31013G18KT 5SM BR OVC009 06/05 A2984 RMK AO2 CIG 007V013
                 T00560050 =
2018-12-16 19:54 METAR KSBY 170054Z 32014G18KT 6SM BR OVC010 06/05 A2984 RMK AO2 SLP106 T00560050
                 =
2018-12-16 19:29 METAR KSBY 170029Z 32015G21KT 10SM OVC010 06/05 A2983 RMK AO2 T00610050 =
2018-12-16 18:54 METAR KSBY 162354Z 31012KT 10SM OVC009 06/05 A2982 RMK AO2 SLP099 60001
                 T00610050 10100 20061 53028 =
2018-12-16 17:54 METAR KSBY 162254Z 31015G21KT 10SM OVC008 07/06 A2979 RMK AO2 SLP089 T00670061 =
2018-12-16 16:49 METAR KSBY 162149Z 33017G22KT 3SM BR BKN006 OVC013 08/07 A2976 RMK AO2
                 RAB2055E21 CIG 005V010 SLP078 P0001 T00780072 =
2018-12-16 16:48 METAR KSBY 162148Z 32017G22KT 3SM BR BKN006 OVC013 08/07 A2976 RMK AO2
                 RAB2055E21 CIG 005V010 P0001 =
2018-12-16 15:50 METAR KSBY 162050Z 31010KT 1 3/4SM BR BKN006 OVC013 09/09 A2974 RMK AO2 WSHFT
                 2026 SLP071 T00890089 53001 =
2018-12-16 15:49 METAR KSBY 162049Z 31010KT 1 3/4SM BR BKN006 OVC013 09/09 A2974 RMK AO2 WSHFT
                 2026 =
2018-12-16 15:40 METAR KSBY 162040Z 32011G20KT 3SM BR BKN006 OVC012 09/09 A2973 RMK AO2 WSHFT
                 2026 T00890089 =
2018-12-16 15:11 METAR KSBY 162011Z 26007KT 2 1/2SM BR BKN007 OVC015 09/09 A2972 RMK AO2
                 T00940089 =
2018-12-16 15:06 METAR KSBY 162006Z 26007KT 4SM BR SCT006 OVC015 09/09 A2971 RMK AO2 T00940089 =
2018-12-16 14:54 METAR KSBY 161954Z 24006KT 10SM SCT006 OVC014 09/09 A2971 RMK AO2 SLP063
                 T00940089 =
2018-12-16 14:45 METAR KSBY 161945Z 25010KT 6SM BR BKN006 OVC012 09/09 A2971 RMK AO2 CIG 005V008
                 T00940089 =
2018-12-16 14:38 METAR KSBY 161938Z 26008KT 2 1/2SM BR OVC007 09/09 A2971 RMK AO2 CIG 005V008
                 T00940094 =
2018-12-16 13:54 METAR KSBY 161854Z 24007KT 10SM OVC008 10/09 A2971 RMK AO2 SLP064 T01000089 =
2018-12-16 12:54 METAR KSBY 161754Z 24010KT 8SM OVC008 10/09 A2973 RMK AO2 SLP070 60003 T01000094
                 10111 20094 56030 =
2018-12-16 11:54 METAR KSBY 161654Z 23011G17KT 7SM OVC007 09/09 A2976 RMK AO2 SLP079 T00940094 =
2018-12-16 11:39 METAR KSBY 161639Z 22012KT 8SM OVC005 10/09 A2976 RMK AO2 CIG 004V008 T01000094
                 =
2018-12-16 11:24 METAR KSBY 161624Z 22012G16KT 4SM BR OVC004 10/10 A2977 RMK AO2 CIG 003V008
                 T01000100 =
2018-12-16 11:10 METAR KSBY 161610Z 22006KT 2 1/2SM BR OVC004 10/10 A2978 RMK AO2 T01000100 =
2018-12-16 10:54 METAR KSBY 161554Z 23009KT 6SM BR OVC004 11/11 A2979 RMK AO2 RAE00B08E17 CIG
                 003V007 SLP090 P0001 T01060106 =
2018-12-16 10:43 METAR KSBY 161543Z 25006KT 5SM BR OVC003 11/11 A2979 RMK AO2 RAE00B08E17 CIG
                 003V007 P0001 T01060106 =
2018-12-16 10:21 METAR KSBY 161521Z 21007KT 2 1/2SM BR OVC004 11/11 A2981 RMK AO2 RAE00B08E17
                 P0001 T01060106 =
2018-12-16 10:11 METAR KSBY 161511Z 21005KT 2SM -RA BR BKN005 OVC013 11/11 A2981 RMK AO2 RAE00B08
                 P0001 T01060106 =
2018-12-16 10:00 METAR KSBY 161500Z 24005KT 3SM BR SCT005 OVC013 11/11 A2982 RMK AO2 RAE00 P0000
                 T01060106 =
2018-12-16 09:54 METAR KSBY 161454Z 25004KT 1 1/2SM -RA BR FEW005 OVC011 11/11 A2982 RMK AO2
                 RAB31 SLP101 P0002 60002 T01060106 58002 =
2018-12-16 09:32 METAR KSBY 161432Z 26004KT 1SM -RA BR OVC005 11/11 A2983 RMK AO2 RAB31 P0000
                 T01060106 =
2018-12-16 08:54 METAR KSBY 161354Z 22004KT 1 1/2SM BR BKN003 OVC009 11/11 A2984 RMK AO2 SLP105
                 T01060106 =
2018-12-16 08:42 METAR KSBY 161342Z 25003KT 1 1/4SM BR BKN003 OVC009 11/11 A2984 RMK AO2
                 T01060106 =
2018-12-16 08:34 METAR KSBY 161334Z 24006KT 1 1/4SM BR FEW004 OVC009 11/11 A2984 RMK AO2
                 T01060106 =
2018-12-16 08:24 METAR KSBY 161324Z 24007KT 1SM BR BKN003 OVC009 11/11 A2984 RMK AO2 T01060106 =
2018-12-16 08:15 METAR KSBY 161315Z 25008KT 3/4SM BR OVC003 11/11 A2984 RMK AO2 T01060106 =
2018-12-16 08:05 METAR KSBY 161305Z 23005KT 1SM BR OVC003 11/11 A2984 RMK AO2 T01060106 =
2018-12-16 07:54 METAR KSBY 161254Z 26003KT 3/4SM BR OVC002 11/11 A2983 RMK AO2 SLP103 T01060106
                 =
2018-12-16 07:49 METAR KSBY 161249Z 27003KT 3/4SM BR OVC002 11/11 A2983 RMK AO2 =
2018-12-16 06:54 METAR KSBY 161154Z 25007KT 1SM BR OVC002 11/11 A2984 RMK AO2 SLP106 60000 70086
                 T01110111 10128 20111 55002 =
2018-12-16 06:24 METAR KSBY 161124Z 23003KT 1 1/4SM BR OVC002 11/11 A2983 RMK AO2 T01110111 =
2018-12-16 06:15 METAR KSBY 161115Z 22004KT 2SM BR OVC003 12/12 A2983 RMK AO2 T01170117 =

Support USWX by starting your Amazon purchase here.